sensor_id;sensor_type;location;lat;lon;timestamp;P1;durP1;ratioP1;P2;durP2;ratioP2
77955;SDS011;67152;36.266;32.294;2023-04-25T00:01:35;6.75;;;5.60;;
77955;SDS011;67152;36.266;32.294;2023-04-25T00:04:03;6.38;;;4.45;;
77955;SDS011;67152;36.266;32.294;2023-04-25T00:06:32;9.90;;;5.53;;
77955;SDS011;67152;36.266;32.294;2023-04-25T00:09:02;11.00;;;5.50;;
77955;SDS011;67152;36.266;32.294;2023-04-25T00:11:33;7.22;;;5.15;;
77955;SDS011;67152;36.266;32.294;2023-04-25T00:14:00;8.30;;;4.68;;
77955;SDS011;67152;36.266;32.294;2023-04-25T00:16:28;8.95;;;4.25;;
77955;SDS011;67152;36.266;32.294;2023-04-25T00:18:59;7.13;;;4.38;;
77955;SDS011;67152;36.266;32.294;2023-04-25T00:21:27;10.00;;;5.03;;
77955;SDS011;67152;36.266;32.294;2023-04-25T00:23:54;7.18;;;5.00;;
77955;SDS011;67152;36.266;32.294;2023-04-25T00:26:21;7.63;;;5.20;;
77955;SDS011;67152;36.266;32.294;2023-04-25T00:28:48;8.68;;;4.55;;
77955;SDS011;67152;36.266;32.294;2023-04-25T00:31:15;11.68;;;5.03;;
77955;SDS011;67152;36.266;32.294;2023-04-25T00:33:42;10.73;;;5.32;;
77955;SDS011;67152;36.266;32.294;2023-04-25T00:36:08;6.72;;;4.88;;
77955;SDS011;67152;36.266;32.294;2023-04-25T00:38:35;6.85;;;5.13;;
77955;SDS011;67152;36.266;32.294;2023-04-25T00:41:05;7.95;;;4.85;;
77955;SDS011;67152;36.266;32.294;2023-04-25T00:43:33;7.10;;;4.28;;
77955;SDS011;67152;36.266;32.294;2023-04-25T00:46:00;6.55;;;4.82;;
77955;SDS011;67152;36.266;32.294;2023-04-25T00:48:27;8.18;;;4.95;;
77955;SDS011;67152;36.266;32.294;2023-04-25T00:50:55;8.63;;;5.07;;
77955;SDS011;67152;36.266;32.294;2023-04-25T00:53:26;7.72;;;4.75;;
77955;SDS011;67152;36.266;32.294;2023-04-25T00:55:54;11.20;;;4.38;;
77955;SDS011;67152;36.266;32.294;2023-04-25T00:58:21;4.85;;;3.22;;
77955;SDS011;67152;36.266;32.294;2023-04-25T01:03:16;11.05;;;4.30;;
77955;SDS011;67152;36.266;32.294;2023-04-25T01:05:45;8.15;;;4.95;;
77955;SDS011;67152;36.266;32.294;2023-04-25T01:08:13;7.72;;;4.80;;
77955;SDS011;67152;36.266;32.294;2023-04-25T01:10:40;6.30;;;4.22;;
77955;SDS011;67152;36.266;32.294;2023-04-25T01:13:07;12.70;;;4.90;;
77955;SDS011;67152;36.266;32.294;2023-04-25T01:15:34;5.95;;;4.70;;
77955;SDS011;67152;36.266;32.294;2023-04-25T01:20:28;6.40;;;4.07;;
77955;SDS011;67152;36.266;32.294;2023-04-25T01:22:55;8.35;;;4.50;;
77955;SDS011;67152;36.266;32.294;2023-04-25T01:25:22;6.90;;;4.57;;
77955;SDS011;67152;36.266;32.294;2023-04-25T01:27:49;9.80;;;4.67;;
77955;SDS011;67152;36.266;32.294;2023-04-25T01:30:16;7.40;;;5.43;;
77955;SDS011;67152;36.266;32.294;2023-04-25T01:32:43;8.38;;;5.22;;
77955;SDS011;67152;36.266;32.294;2023-04-25T01:35:11;10.32;;;5.78;;
77955;SDS011;67152;36.266;32.294;2023-04-25T01:40:10;6.75;;;4.43;;
77955;SDS011;67152;36.266;32.294;2023-04-25T01:42:38;8.25;;;4.05;;
77955;SDS011;67152;36.266;32.294;2023-04-25T01:45:06;8.10;;;4.70;;
77955;SDS011;67152;36.266;32.294;2023-04-25T01:50:03;6.30;;;3.70;;
77955;SDS011;67152;36.266;32.294;2023-04-25T01:52:31;5.35;;;4.03;;
77955;SDS011;67152;36.266;32.294;2023-04-25T01:54:59;5.90;;;4.40;;
77955;SDS011;67152;36.266;32.294;2023-04-25T01:57:27;6.65;;;3.42;;
77955;SDS011;67152;36.266;32.294;2023-04-25T01:59:55;5.17;;;3.67;;
77955;SDS011;67152;36.266;32.294;2023-04-25T02:02:25;6.20;;;3.55;;
77955;SDS011;67152;36.266;32.294;2023-04-25T02:04:52;4.60;;;3.65;;
77955;SDS011;67152;36.266;32.294;2023-04-25T02:09:47;3.45;;;2.50;;
77955;SDS011;67152;36.266;32.294;2023-04-25T02:12:13;7.18;;;3.50;;
77955;SDS011;67152;36.266;32.294;2023-04-25T02:14:40;4.32;;;2.80;;
77955;SDS011;67152;36.266;32.294;2023-04-25T02:17:07;6.47;;;4.15;;
77955;SDS011;67152;36.266;32.294;2023-04-25T02:19:34;5.35;;;3.88;;
77955;SDS011;67152;36.266;32.294;2023-04-25T02:22:00;5.82;;;3.20;;
77955;SDS011;67152;36.266;32.294;2023-04-25T02:24:27;10.75;;;4.00;;
77955;SDS011;67152;36.266;32.294;2023-04-25T02:26:54;8.75;;;4.38;;
77955;SDS011;67152;36.266;32.294;2023-04-25T02:29:23;5.38;;;4.38;;
77955;SDS011;67152;36.266;32.294;2023-04-25T02:31:50;6.20;;;5.03;;
77955;SDS011;67152;36.266;32.294;2023-04-25T02:34:17;6.63;;;4.28;;
77955;SDS011;67152;36.266;32.294;2023-04-25T02:36:43;8.43;;;5.40;;
77955;SDS011;67152;36.266;32.294;2023-04-25T02:39:10;8.10;;;5.63;;
77955;SDS011;67152;36.266;32.294;2023-04-25T02:41:37;6.38;;;5.03;;
77955;SDS011;67152;36.266;32.294;2023-04-25T02:44:04;7.90;;;5.10;;
77955;SDS011;67152;36.266;32.294;2023-04-25T02:46:31;9.30;;;4.97;;
77955;SDS011;67152;36.266;32.294;2023-04-25T02:48:58;10.25;;;4.85;;
77955;SDS011;67152;36.266;32.294;2023-04-25T02:51:24;4.57;;;3.85;;
77955;SDS011;67152;36.266;32.294;2023-04-25T02:53:52;6.00;;;3.63;;
77955;SDS011;67152;36.266;32.294;2023-04-25T02:56:18;4.25;;;3.60;;
77955;SDS011;67152;36.266;32.294;2023-04-25T02:58:45;6.97;;;4.10;;
77955;SDS011;67152;36.266;32.294;2023-04-25T03:01:12;4.10;;;3.42;;
77955;SDS011;67152;36.266;32.294;2023-04-25T03:03:39;5.35;;;3.60;;
77955;SDS011;67152;36.266;32.294;2023-04-25T03:06:06;7.20;;;4.20;;
77955;SDS011;67152;36.266;32.294;2023-04-25T03:08:32;9.88;;;4.43;;
77955;SDS011;67152;36.266;32.294;2023-04-25T03:11:00;11.35;;;3.80;;
77955;SDS011;67152;36.266;32.294;2023-04-25T03:13:27;5.68;;;3.60;;
77955;SDS011;67152;36.266;32.294;2023-04-25T03:15:55;7.57;;;4.30;;
77955;SDS011;67152;36.266;32.294;2023-04-25T03:18:22;8.03;;;3.57;;
77955;SDS011;67152;36.266;32.294;2023-04-25T03:20:49;13.13;;;4.63;;
77955;SDS011;67152;36.266;32.294;2023-04-25T03:23:15;10.68;;;4.85;;
77955;SDS011;67152;36.266;32.294;2023-04-25T03:25:42;10.23;;;4.90;;
77955;SDS011;67152;36.266;32.294;2023-04-25T03:28:09;15.98;;;5.82;;
77955;SDS011;67152;36.266;32.294;2023-04-25T03:30:36;13.27;;;5.53;;
77955;SDS011;67152;36.266;32.294;2023-04-25T03:33:02;7.93;;;5.47;;
77955;SDS011;67152;36.266;32.294;2023-04-25T03:35:29;10.55;;;5.13;;
77955;SDS011;67152;36.266;32.294;2023-04-25T03:37:56;10.45;;;4.43;;
77955;SDS011;67152;36.266;32.294;2023-04-25T03:40:23;9.55;;;4.43;;
77955;SDS011;67152;36.266;32.294;2023-04-25T03:42:49;12.27;;;4.68;;
77955;SDS011;67152;36.266;32.294;2023-04-25T03:45:16;11.87;;;3.93;;
77955;SDS011;67152;36.266;32.294;2023-04-25T03:47:43;14.75;;;3.88;;
77955;SDS011;67152;36.266;32.294;2023-04-25T03:50:09;10.80;;;4.13;;
77955;SDS011;67152;36.266;32.294;2023-04-25T03:52:36;6.40;;;4.10;;
77955;SDS011;67152;36.266;32.294;2023-04-25T03:55:03;8.82;;;4.30;;
77955;SDS011;67152;36.266;32.294;2023-04-25T03:57:31;5.05;;;3.38;;
77955;SDS011;67152;36.266;32.294;2023-04-25T03:59:57;7.97;;;3.70;;
77955;SDS011;67152;36.266;32.294;2023-04-25T04:02:24;11.90;;;4.00;;
77955;SDS011;67152;36.266;32.294;2023-04-25T04:04:51;11.10;;;4.60;;
77955;SDS011;67152;36.266;32.294;2023-04-25T04:07:17;17.85;;;4.40;;
77955;SDS011;67152;36.266;32.294;2023-04-25T04:09:44;9.10;;;4.40;;
77955;SDS011;67152;36.266;32.294;2023-04-25T04:12:11;6.55;;;3.97;;
77955;SDS011;67152;36.266;32.294;2023-04-25T04:14:37;6.97;;;3.67;;
77955;SDS011;67152;36.266;32.294;2023-04-25T04:17:04;12.30;;;4.57;;
77955;SDS011;67152;36.266;32.294;2023-04-25T04:19:31;9.38;;;4.30;;
77955;SDS011;67152;36.266;32.294;2023-04-25T04:21:58;9.85;;;6.30;;
77955;SDS011;67152;36.266;32.294;2023-04-25T04:24:25;10.73;;;5.97;;
77955;SDS011;67152;36.266;32.294;2023-04-25T04:26:52;10.80;;;5.65;;
77955;SDS011;67152;36.266;32.294;2023-04-25T04:29:19;15.98;;;5.25;;
77955;SDS011;67152;36.266;32.294;2023-04-25T04:31:49;12.18;;;4.85;;
77955;SDS011;67152;36.266;32.294;2023-04-25T04:34:16;8.45;;;5.30;;
77955;SDS011;67152;36.266;32.294;2023-04-25T04:36:44;9.02;;;4.63;;
77955;SDS011;67152;36.266;32.294;2023-04-25T04:39:14;9.38;;;4.43;;
77955;SDS011;67152;36.266;32.294;2023-04-25T04:41:41;6.80;;;4.63;;
77955;SDS011;67152;36.266;32.294;2023-04-25T04:44:08;11.45;;;4.57;;
77955;SDS011;67152;36.266;32.294;2023-04-25T04:46:36;15.60;;;4.20;;
77955;SDS011;67152;36.266;32.294;2023-04-25T04:49:08;7.43;;;3.35;;
77955;SDS011;67152;36.266;32.294;2023-04-25T04:51:35;9.48;;;3.78;;
77955;SDS011;67152;36.266;32.294;2023-04-25T04:54:04;9.52;;;3.30;;
77955;SDS011;67152;36.266;32.294;2023-04-25T04:56:30;16.10;;;4.18;;
77955;SDS011;67152;36.266;32.294;2023-04-25T04:58:57;16.98;;;3.58;;
77955;SDS011;67152;36.266;32.294;2023-04-25T05:01:25;13.40;;;3.78;;
77955;SDS011;67152;36.266;32.294;2023-04-25T05:06:19;7.30;;;3.75;;
77955;SDS011;67152;36.266;32.294;2023-04-25T05:08:45;14.90;;;3.47;;
77955;SDS011;67152;36.266;32.294;2023-04-25T05:11:12;6.95;;;3.55;;
77955;SDS011;67152;36.266;32.294;2023-04-25T05:13:39;6.47;;;3.63;;
77955;SDS011;67152;36.266;32.294;2023-04-25T05:16:06;17.83;;;3.95;;
77955;SDS011;67152;36.266;32.294;2023-04-25T05:18:32;11.68;;;3.75;;
77955;SDS011;67152;36.266;32.294;2023-04-25T05:20:59;10.75;;;3.95;;
77955;SDS011;67152;36.266;32.294;2023-04-25T05:23:26;8.90;;;3.83;;
77955;SDS011;67152;36.266;32.294;2023-04-25T05:25:53;8.75;;;4.40;;
77955;SDS011;67152;36.266;32.294;2023-04-25T05:28:20;10.48;;;3.95;;
77955;SDS011;67152;36.266;32.294;2023-04-25T05:30:47;14.40;;;4.72;;
77955;SDS011;67152;36.266;32.294;2023-04-25T05:33:15;9.48;;;4.53;;
77955;SDS011;67152;36.266;32.294;2023-04-25T05:35:42;9.80;;;4.63;;
77955;SDS011;67152;36.266;32.294;2023-04-25T05:38:09;8.25;;;3.80;;
77955;SDS011;67152;36.266;32.294;2023-04-25T05:40:36;6.28;;;3.35;;
77955;SDS011;67152;36.266;32.294;2023-04-25T05:43:03;8.88;;;3.83;;
77955;SDS011;67152;36.266;32.294;2023-04-25T05:45:29;13.68;;;4.55;;
77955;SDS011;67152;36.266;32.294;2023-04-25T05:47:56;16.27;;;4.20;;
77955;SDS011;67152;36.266;32.294;2023-04-25T05:50:23;9.10;;;4.43;;
77955;SDS011;67152;36.266;32.294;2023-04-25T05:52:50;7.45;;;4.13;;
77955;SDS011;67152;36.266;32.294;2023-04-25T05:55:17;16.15;;;4.53;;
77955;SDS011;67152;36.266;32.294;2023-04-25T05:57:43;17.35;;;5.40;;
77955;SDS011;67152;36.266;32.294;2023-04-25T06:00:12;12.38;;;4.47;;
77955;SDS011;67152;36.266;32.294;2023-04-25T06:02:41;17.75;;;4.43;;
77955;SDS011;67152;36.266;32.294;2023-04-25T06:05:08;14.77;;;5.28;;
77955;SDS011;67152;36.266;32.294;2023-04-25T06:10:02;16.98;;;4.97;;
77955;SDS011;67152;36.266;32.294;2023-04-25T06:12:32;13.52;;;4.97;;
77955;SDS011;67152;36.266;32.294;2023-04-25T06:17:46;22.67;;;5.07;;
77955;SDS011;67152;36.266;32.294;2023-04-25T06:20:12;11.73;;;4.35;;
77955;SDS011;67152;36.266;32.294;2023-04-25T06:22:39;14.68;;;4.90;;
77955;SDS011;67152;36.266;32.294;2023-04-25T06:25:06;18.20;;;4.95;;
77955;SDS011;67152;36.266;32.294;2023-04-25T06:30:00;13.18;;;4.30;;
77955;SDS011;67152;36.266;32.294;2023-04-25T06:32:27;15.18;;;4.15;;
77955;SDS011;67152;36.266;32.294;2023-04-25T06:34:55;15.02;;;4.32;;
77955;SDS011;67152;36.266;32.294;2023-04-25T06:37:22;10.88;;;3.53;;
77955;SDS011;67152;36.266;32.294;2023-04-25T06:42:16;11.57;;;4.03;;
77955;SDS011;67152;36.266;32.294;2023-04-25T06:47:09;7.75;;;3.50;;
77955;SDS011;67152;36.266;32.294;2023-04-25T06:49:36;15.80;;;3.97;;
77955;SDS011;67152;36.266;32.294;2023-04-25T06:52:02;12.60;;;4.10;;
77955;SDS011;67152;36.266;32.294;2023-04-25T06:54:29;14.02;;;4.18;;
77955;SDS011;67152;36.266;32.294;2023-04-25T06:59:23;13.48;;;4.13;;
77955;SDS011;67152;36.266;32.294;2023-04-25T07:01:50;10.70;;;6.10;;
77955;SDS011;67152;36.266;32.294;2023-04-25T07:04:16;23.00;;;5.10;;
77955;SDS011;67152;36.266;32.294;2023-04-25T07:06:44;9.90;;;4.22;;
77955;SDS011;67152;36.266;32.294;2023-04-25T07:09:12;17.13;;;4.65;;
77955;SDS011;67152;36.266;32.294;2023-04-25T07:11:39;9.80;;;4.53;;
77955;SDS011;67152;36.266;32.294;2023-04-25T07:14:06;13.43;;;5.05;;
77955;SDS011;67152;36.266;32.294;2023-04-25T07:16:33;9.13;;;3.80;;
77955;SDS011;67152;36.266;32.294;2023-04-25T07:19:00;18.23;;;4.18;;
77955;SDS011;67152;36.266;32.294;2023-04-25T07:21:26;17.58;;;4.90;;
77955;SDS011;67152;36.266;32.294;2023-04-25T07:23:53;15.45;;;5.35;;
77955;SDS011;67152;36.266;32.294;2023-04-25T07:26:20;15.45;;;4.65;;
77955;SDS011;67152;36.266;32.294;2023-04-25T07:28:47;14.35;;;5.30;;
77955;SDS011;67152;36.266;32.294;2023-04-25T07:31:17;8.90;;;4.70;;
77955;SDS011;67152;36.266;32.294;2023-04-25T07:33:44;11.95;;;4.82;;
77955;SDS011;67152;36.266;32.294;2023-04-25T07:36:12;12.43;;;5.15;;
77955;SDS011;67152;36.266;32.294;2023-04-25T07:38:39;13.27;;;4.63;;
77955;SDS011;67152;36.266;32.294;2023-04-25T07:41:05;8.93;;;5.03;;
77955;SDS011;67152;36.266;32.294;2023-04-25T07:43:32;16.55;;;4.90;;
77955;SDS011;67152;36.266;32.294;2023-04-25T07:45:59;12.00;;;4.78;;
77955;SDS011;67152;36.266;32.294;2023-04-25T07:48:26;12.25;;;5.00;;
77955;SDS011;67152;36.266;32.294;2023-04-25T07:50:53;23.02;;;4.63;;
77955;SDS011;67152;36.266;32.294;2023-04-25T07:53:19;12.30;;;4.78;;
77955;SDS011;67152;36.266;32.294;2023-04-25T07:55:47;9.48;;;4.32;;
77955;SDS011;67152;36.266;32.294;2023-04-25T07:58:14;11.77;;;4.82;;
77955;SDS011;67152;36.266;32.294;2023-04-25T08:00:41;8.05;;;4.53;;
77955;SDS011;67152;36.266;32.294;2023-04-25T08:03:09;13.75;;;5.35;;
77955;SDS011;67152;36.266;32.294;2023-04-25T08:05:36;12.70;;;4.80;;
77955;SDS011;67152;36.266;32.294;2023-04-25T08:08:02;10.10;;;4.47;;
77955;SDS011;67152;36.266;32.294;2023-04-25T08:10:30;9.55;;;4.40;;
77955;SDS011;67152;36.266;32.294;2023-04-25T08:12:56;9.05;;;4.50;;
77955;SDS011;67152;36.266;32.294;2023-04-25T08:15:23;20.48;;;5.05;;
77955;SDS011;67152;36.266;32.294;2023-04-25T08:17:51;10.93;;;4.60;;
77955;SDS011;67152;36.266;32.294;2023-04-25T08:20:18;10.30;;;4.60;;
77955;SDS011;67152;36.266;32.294;2023-04-25T08:22:45;10.68;;;4.60;;
77955;SDS011;67152;36.266;32.294;2023-04-25T08:25:11;11.30;;;3.97;;
77955;SDS011;67152;36.266;32.294;2023-04-25T08:27:38;8.88;;;3.92;;
77955;SDS011;67152;36.266;32.294;2023-04-25T08:30:05;14.65;;;4.93;;
77955;SDS011;67152;36.266;32.294;2023-04-25T08:32:34;14.65;;;5.20;;
77955;SDS011;67152;36.266;32.294;2023-04-25T08:35:04;9.27;;;4.15;;
77955;SDS011;67152;36.266;32.294;2023-04-25T08:37:31;19.48;;;5.35;;
77955;SDS011;67152;36.266;32.294;2023-04-25T08:39:58;12.77;;;4.95;;
77955;SDS011;67152;36.266;32.294;2023-04-25T08:42:25;10.02;;;4.55;;
77955;SDS011;67152;36.266;32.294;2023-04-25T08:44:54;13.98;;;4.65;;
77955;SDS011;67152;36.266;32.294;2023-04-25T08:49:48;21.20;;;4.50;;
77955;SDS011;67152;36.266;32.294;2023-04-25T08:52:16;9.65;;;4.47;;
77955;SDS011;67152;36.266;32.294;2023-04-25T08:54:43;12.10;;;4.72;;
77955;SDS011;67152;36.266;32.294;2023-04-25T08:57:15;13.73;;;4.78;;
77955;SDS011;67152;36.266;32.294;2023-04-25T08:59:41;18.63;;;4.45;;
77955;SDS011;67152;36.266;32.294;2023-04-25T09:02:12;11.82;;;4.43;;
77955;SDS011;67152;36.266;32.294;2023-04-25T09:04:44;10.50;;;3.95;;
77955;SDS011;67152;36.266;32.294;2023-04-25T09:07:11;32.35;;;5.78;;
77955;SDS011;67152;36.266;32.294;2023-04-25T09:09:38;9.45;;;4.03;;
77955;SDS011;67152;36.266;32.294;2023-04-25T09:12:05;13.13;;;4.70;;
77955;SDS011;67152;36.266;32.294;2023-04-25T09:14:32;16.45;;;4.28;;
77955;SDS011;67152;36.266;32.294;2023-04-25T09:16:59;11.32;;;4.32;;
77955;SDS011;67152;36.266;32.294;2023-04-25T09:19:32;15.32;;;4.88;;
77955;SDS011;67152;36.266;32.294;2023-04-25T09:22:04;8.13;;;4.72;;
77955;SDS011;67152;36.266;32.294;2023-04-25T09:26:58;16.10;;;4.53;;
77955;SDS011;67152;36.266;32.294;2023-04-25T09:29:31;11.98;;;4.57;;
77955;SDS011;67152;36.266;32.294;2023-04-25T09:32:19;11.80;;;4.15;;
77955;SDS011;67152;36.266;32.294;2023-04-25T09:34:48;11.75;;;4.60;;
77955;SDS011;67152;36.266;32.294;2023-04-25T09:37:20;14.75;;;4.60;;
77955;SDS011;67152;36.266;32.294;2023-04-25T09:39:48;15.23;;;4.18;;
77955;SDS011;67152;36.266;32.294;2023-04-25T09:42:16;12.07;;;4.43;;
77955;SDS011;67152;36.266;32.294;2023-04-25T09:47:11;8.10;;;4.15;;
77955;SDS011;67152;36.266;32.294;2023-04-25T09:49:39;10.15;;;4.38;;
77955;SDS011;67152;36.266;32.294;2023-04-25T09:52:08;15.00;;;5.10;;
77955;SDS011;67152;36.266;32.294;2023-04-25T09:54:45;21.13;;;5.43;;
77955;SDS011;67152;36.266;32.294;2023-04-25T09:57:17;17.65;;;4.80;;
77955;SDS011;67152;36.266;32.294;2023-04-25T09:59:49;21.58;;;5.18;;
77955;SDS011;67152;36.266;32.294;2023-04-25T10:02:18;27.30;;;4.30;;
77955;SDS011;67152;36.266;32.294;2023-04-25T10:04:48;18.50;;;4.65;;
77955;SDS011;67152;36.266;32.294;2023-04-25T10:07:22;12.35;;;3.90;;
77955;SDS011;67152;36.266;32.294;2023-04-25T10:09:54;11.00;;;4.78;;
77955;SDS011;67152;36.266;32.294;2023-04-25T10:12:29;17.85;;;4.90;;
77955;SDS011;67152;36.266;32.294;2023-04-25T10:15:01;16.48;;;4.88;;
77955;SDS011;67152;36.266;32.294;2023-04-25T10:17:30;12.93;;;4.43;;
77955;SDS011;67152;36.266;32.294;2023-04-25T10:19:57;14.60;;;4.35;;
77955;SDS011;67152;36.266;32.294;2023-04-25T10:22:29;11.18;;;4.10;;
77955;SDS011;67152;36.266;32.294;2023-04-25T10:24:57;15.18;;;4.50;;
77955;SDS011;67152;36.266;32.294;2023-04-25T10:30:06;20.95;;;4.07;;
77955;SDS011;67152;36.266;32.294;2023-04-25T10:32:36;14.32;;;3.72;;
77955;SDS011;67152;36.266;32.294;2023-04-25T10:37:37;12.25;;;3.45;;
77955;SDS011;67152;36.266;32.294;2023-04-25T10:40:08;16.55;;;4.20;;
77955;SDS011;67152;36.266;32.294;2023-04-25T10:42:35;11.85;;;3.88;;
77955;SDS011;67152;36.266;32.294;2023-04-25T10:45:04;9.10;;;3.80;;
77955;SDS011;67152;36.266;32.294;2023-04-25T10:47:35;8.48;;;3.60;;
77955;SDS011;67152;36.266;32.294;2023-04-25T10:50:06;22.98;;;4.57;;
77955;SDS011;67152;36.266;32.294;2023-04-25T10:52:34;15.30;;;4.25;;
77955;SDS011;67152;36.266;32.294;2023-04-25T10:55:02;11.68;;;3.67;;
77955;SDS011;67152;36.266;32.294;2023-04-25T10:57:40;24.60;;;4.70;;
77955;SDS011;67152;36.266;32.294;2023-04-25T11:00:16;20.88;;;4.38;;
77955;SDS011;67152;36.266;32.294;2023-04-25T11:02:48;15.73;;;4.15;;
77955;SDS011;67152;36.266;32.294;2023-04-25T11:05:23;15.70;;;3.90;;
77955;SDS011;67152;36.266;32.294;2023-04-25T11:07:55;22.30;;;4.67;;
77955;SDS011;67152;36.266;32.294;2023-04-25T11:10:29;13.63;;;3.83;;
77955;SDS011;67152;36.266;32.294;2023-04-25T11:12:57;15.73;;;3.90;;
77955;SDS011;67152;36.266;32.294;2023-04-25T11:15:25;17.50;;;3.97;;
77955;SDS011;67152;36.266;32.294;2023-04-25T11:17:53;17.05;;;4.10;;
77955;SDS011;67152;36.266;32.294;2023-04-25T11:20:20;19.40;;;4.13;;
77955;SDS011;67152;36.266;32.294;2023-04-25T11:22:47;31.20;;;4.88;;
77955;SDS011;67152;36.266;32.294;2023-04-25T11:25:15;22.38;;;3.80;;
77955;SDS011;67152;36.266;32.294;2023-04-25T11:30:16;13.20;;;3.97;;
77955;SDS011;67152;36.266;32.294;2023-04-25T11:35:10;12.18;;;3.35;;
77955;SDS011;67152;36.266;32.294;2023-04-25T11:37:38;13.48;;;3.72;;
77955;SDS011;67152;36.266;32.294;2023-04-25T11:40:09;11.48;;;3.85;;
77955;SDS011;67152;36.266;32.294;2023-04-25T11:42:43;13.10;;;4.03;;
77955;SDS011;67152;36.266;32.294;2023-04-25T11:45:11;15.45;;;4.20;;
77955;SDS011;67152;36.266;32.294;2023-04-25T11:47:38;11.35;;;3.92;;
77955;SDS011;67152;36.266;32.294;2023-04-25T11:50:07;13.38;;;3.75;;
77955;SDS011;67152;36.266;32.294;2023-04-25T11:52:37;15.57;;;3.83;;
77955;SDS011;67152;36.266;32.294;2023-04-25T11:55:06;9.45;;;3.95;;
77955;SDS011;67152;36.266;32.294;2023-04-25T11:57:34;18.05;;;3.83;;
77955;SDS011;67152;36.266;32.294;2023-04-25T12:02:43;9.02;;;3.50;;
77955;SDS011;67152;36.266;32.294;2023-04-25T12:05:11;11.68;;;3.92;;
77955;SDS011;67152;36.266;32.294;2023-04-25T12:07:39;16.75;;;4.00;;
77955;SDS011;67152;36.266;32.294;2023-04-25T12:10:07;10.02;;;3.40;;
77955;SDS011;67152;36.266;32.294;2023-04-25T12:12:36;14.13;;;3.83;;
77955;SDS011;67152;36.266;32.294;2023-04-25T12:17:42;12.23;;;3.60;;
77955;SDS011;67152;36.266;32.294;2023-04-25T12:20:13;13.15;;;3.75;;
77955;SDS011;67152;36.266;32.294;2023-04-25T12:22:41;14.60;;;3.60;;
77955;SDS011;67152;36.266;32.294;2023-04-25T12:25:34;10.50;;;3.72;;
77955;SDS011;67152;36.266;32.294;2023-04-25T12:31:01;13.55;;;3.85;;
77955;SDS011;67152;36.266;32.294;2023-04-25T12:33:29;14.65;;;3.13;;
77955;SDS011;67152;36.266;32.294;2023-04-25T12:36:05;10.60;;;3.60;;
77955;SDS011;67152;36.266;32.294;2023-04-25T12:38:37;15.25;;;3.70;;
77955;SDS011;67152;36.266;32.294;2023-04-25T12:41:06;9.27;;;3.08;;
77955;SDS011;67152;36.266;32.294;2023-04-25T12:43:33;10.93;;;3.42;;
77955;SDS011;67152;36.266;32.294;2023-04-25T12:46:00;9.55;;;3.53;;
77955;SDS011;67152;36.266;32.294;2023-04-25T12:48:27;10.52;;;3.53;;
77955;SDS011;67152;36.266;32.294;2023-04-25T12:50:54;20.15;;;3.35;;
77955;SDS011;67152;36.266;32.294;2023-04-25T12:53:21;10.73;;;3.85;;
77955;SDS011;67152;36.266;32.294;2023-04-25T12:55:50;12.30;;;3.80;;
77955;SDS011;67152;36.266;32.294;2023-04-25T12:58:18;12.15;;;3.03;;
77955;SDS011;67152;36.266;32.294;2023-04-25T13:00:45;15.05;;;3.10;;
77955;SDS011;67152;36.266;32.294;2023-04-25T13:05:38;13.10;;;3.38;;
77955;SDS011;67152;36.266;32.294;2023-04-25T13:08:05;11.57;;;3.53;;
77955;SDS011;67152;36.266;32.294;2023-04-25T13:10:32;9.77;;;3.40;;
77955;SDS011;67152;36.266;32.294;2023-04-25T13:15:27;9.70;;;3.53;;
77955;SDS011;67152;36.266;32.294;2023-04-25T13:17:53;12.68;;;3.35;;
77955;SDS011;67152;36.266;32.294;2023-04-25T13:20:21;14.82;;;3.80;;
77955;SDS011;67152;36.266;32.294;2023-04-25T13:22:48;15.73;;;4.10;;
77955;SDS011;67152;36.266;32.294;2023-04-25T13:27:42;16.92;;;3.90;;
77955;SDS011;67152;36.266;32.294;2023-04-25T13:30:10;10.73;;;3.80;;
77955;SDS011;67152;36.266;32.294;2023-04-25T13:35:07;10.02;;;3.60;;
77955;SDS011;67152;36.266;32.294;2023-04-25T13:37:36;12.60;;;3.58;;
77955;SDS011;67152;36.266;32.294;2023-04-25T13:40:03;13.15;;;3.55;;
77955;SDS011;67152;36.266;32.294;2023-04-25T13:42:32;16.50;;;3.30;;
77955;SDS011;67152;36.266;32.294;2023-04-25T13:44:59;15.48;;;3.40;;
77955;SDS011;67152;36.266;32.294;2023-04-25T13:47:26;14.18;;;3.22;;
77955;SDS011;67152;36.266;32.294;2023-04-25T13:49:53;10.43;;;4.10;;
77955;SDS011;67152;36.266;32.294;2023-04-25T13:52:20;11.95;;;3.70;;
77955;SDS011;67152;36.266;32.294;2023-04-25T13:54:47;10.95;;;3.75;;
77955;SDS011;67152;36.266;32.294;2023-04-25T13:57:14;12.35;;;3.90;;
77955;SDS011;67152;36.266;32.294;2023-04-25T13:59:41;10.80;;;3.42;;
77955;SDS011;67152;36.266;32.294;2023-04-25T14:02:08;8.93;;;3.35;;
77955;SDS011;67152;36.266;32.294;2023-04-25T14:04:35;10.27;;;3.05;;
77955;SDS011;67152;36.266;32.294;2023-04-25T14:07:02;8.43;;;2.92;;
77955;SDS011;67152;36.266;32.294;2023-04-25T14:09:30;11.20;;;3.53;;
77955;SDS011;67152;36.266;32.294;2023-04-25T14:11:59;13.55;;;2.47;;
77955;SDS011;67152;36.266;32.294;2023-04-25T14:14:27;13.93;;;3.20;;
77955;SDS011;67152;36.266;32.294;2023-04-25T14:16:54;9.18;;;3.40;;
77955;SDS011;67152;36.266;32.294;2023-04-25T14:19:22;18.15;;;3.65;;
77955;SDS011;67152;36.266;32.294;2023-04-25T14:21:50;14.18;;;3.58;;
77955;SDS011;67152;36.266;32.294;2023-04-25T14:24:17;11.88;;;3.13;;
77955;SDS011;67152;36.266;32.294;2023-04-25T14:26:44;14.25;;;3.40;;
77955;SDS011;67152;36.266;32.294;2023-04-25T14:29:11;12.27;;;4.15;;
77955;SDS011;67152;36.266;32.294;2023-04-25T14:31:38;28.45;;;4.00;;
77955;SDS011;67152;36.266;32.294;2023-04-25T14:34:06;13.90;;;3.97;;
77955;SDS011;67152;36.266;32.294;2023-04-25T14:36:33;13.40;;;4.15;;
77955;SDS011;67152;36.266;32.294;2023-04-25T14:39:02;12.52;;;3.72;;
77955;SDS011;67152;36.266;32.294;2023-04-25T14:41:30;11.30;;;3.85;;
77955;SDS011;67152;36.266;32.294;2023-04-25T14:43:57;19.83;;;4.32;;
77955;SDS011;67152;36.266;32.294;2023-04-25T14:46:24;11.57;;;3.35;;
77955;SDS011;67152;36.266;32.294;2023-04-25T14:48:51;11.82;;;3.05;;
77955;SDS011;67152;36.266;32.294;2023-04-25T14:51:18;15.75;;;4.03;;
77955;SDS011;67152;36.266;32.294;2023-04-25T14:53:45;11.83;;;4.27;;
77955;SDS011;67152;36.266;32.294;2023-04-25T14:56:12;11.57;;;3.95;;
77955;SDS011;67152;36.266;32.294;2023-04-25T14:58:39;12.70;;;3.65;;
77955;SDS011;67152;36.266;32.294;2023-04-25T15:03:33;10.20;;;3.63;;
77955;SDS011;67152;36.266;32.294;2023-04-25T15:06:00;37.05;;;4.75;;
77955;SDS011;67152;36.266;32.294;2023-04-25T15:08:27;31.48;;;5.15;;
77955;SDS011;67152;36.266;32.294;2023-04-25T15:10:56;9.55;;;3.60;;
77955;SDS011;67152;36.266;32.294;2023-04-25T15:13:23;20.42;;;4.40;;
77955;SDS011;67152;36.266;32.294;2023-04-25T15:15:49;16.63;;;6.97;;
77955;SDS011;67152;36.266;32.294;2023-04-25T15:18:17;12.73;;;4.72;;
77955;SDS011;67152;36.266;32.294;2023-04-25T15:20:48;9.95;;;3.38;;
77955;SDS011;67152;36.266;32.294;2023-04-25T15:23:16;13.20;;;3.63;;
77955;SDS011;67152;36.266;32.294;2023-04-25T15:25:44;16.10;;;2.80;;
77955;SDS011;67152;36.266;32.294;2023-04-25T15:28:11;19.52;;;3.58;;
77955;SDS011;67152;36.266;32.294;2023-04-25T15:30:41;13.23;;;2.78;;
77955;SDS011;67152;36.266;32.294;2023-04-25T15:33:08;21.55;;;3.28;;
77955;SDS011;67152;36.266;32.294;2023-04-25T15:35:35;9.90;;;2.80;;
77955;SDS011;67152;36.266;32.294;2023-04-25T15:38:02;13.98;;;3.22;;